sensor_id;sensor_type;location;lat;lon;timestamp;temperature;humidity
59301;DHT22;45073;52.740;6.784;2024-02-21T00:02:21;9.40;99.90
59301;DHT22;45073;52.740;6.784;2024-02-21T00:04:46;9.40;99.90
59301;DHT22;45073;52.740;6.784;2024-02-21T00:07:12;9.40;99.90
59301;DHT22;45073;52.740;6.784;2024-02-21T00:09:37;9.50;99.90
59301;DHT22;45073;52.740;6.784;2024-02-21T00:12:03;9.50;99.90
59301;DHT22;45073;52.740;6.784;2024-02-21T00:14:30;9.50;99.90
59301;DHT22;45073;52.740;6.784;2024-02-21T00:16:56;9.40;99.90
59301;DHT22;45073;52.740;6.784;2024-02-21T00:19:21;9.40;99.90
59301;DHT22;45073;52.740;6.784;2024-02-21T00:21:47;9.50;99.90
59301;DHT22;45073;52.740;6.784;2024-02-21T00:24:13;9.50;99.90
59301;DHT22;45073;52.740;6.784;2024-02-21T00:26:38;9.50;99.90
59301;DHT22;45073;52.740;6.784;2024-02-21T00:29:04;9.50;99.90
59301;DHT22;45073;52.740;6.784;2024-02-21T00:31:30;9.50;99.90
59301;DHT22;45073;52.740;6.784;2024-02-21T00:33:56;9.50;99.90
59301;DHT22;45073;52.740;6.784;2024-02-21T00:36:22;9.50;99.90
59301;DHT22;45073;52.740;6.784;2024-02-21T00:38:47;9.50;99.90
59301;DHT22;45073;52.740;6.784;2024-02-21T00:41:13;9.50;99.90
59301;DHT22;45073;52.740;6.784;2024-02-21T00:43:38;9.50;99.90
59301;DHT22;45073;52.740;6.784;2024-02-21T00:46:06;9.50;99.90
59301;DHT22;45073;52.740;6.784;2024-02-21T00:48:31;9.50;99.90
59301;DHT22;45073;52.740;6.784;2024-02-21T00:50:57;9.50;99.90
59301;DHT22;45073;52.740;6.784;2024-02-21T00:53:23;9.50;99.90
59301;DHT22;45073;52.740;6.784;2024-02-21T00:55:49;9.50;99.90
59301;DHT22;45073;52.740;6.784;2024-02-21T00:58:14;9.50;99.90
59301;DHT22;45073;52.740;6.784;2024-02-21T01:00:40;9.50;99.90
59301;DHT22;45073;52.740;6.784;2024-02-21T01:03:06;9.50;99.90
59301;DHT22;45073;52.740;6.784;2024-02-21T01:05:31;9.50;99.90
59301;DHT22;45073;52.740;6.784;2024-02-21T01:07:57;9.50;99.90
59301;DHT22;45073;52.740;6.784;2024-02-21T01:10:23;9.50;99.90
59301;DHT22;45073;52.740;6.784;2024-02-21T01:12:49;9.50;99.90
59301;DHT22;45073;52.740;6.784;2024-02-21T01:15:14;9.50;99.90
59301;DHT22;45073;52.740;6.784;2024-02-21T01:17:40;9.50;99.90
59301;DHT22;45073;52.740;6.784;2024-02-21T01:20:06;9.50;99.90
59301;DHT22;45073;52.740;6.784;2024-02-21T01:22:32;9.50;99.90
59301;DHT22;45073;52.740;6.784;2024-02-21T01:24:58;9.50;99.90
59301;DHT22;45073;52.740;6.784;2024-02-21T01:27:23;9.50;99.90
59301;DHT22;45073;52.740;6.784;2024-02-21T01:29:49;9.50;99.90
59301;DHT22;45073;52.740;6.784;2024-02-21T01:32:15;9.50;99.90
59301;DHT22;45073;52.740;6.784;2024-02-21T01:34:41;9.50;99.90
59301;DHT22;45073;52.740;6.784;2024-02-21T01:37:07;9.50;99.90
59301;DHT22;45073;52.740;6.784;2024-02-21T01:39:33;9.50;99.90
59301;DHT22;45073;52.740;6.784;2024-02-21T01:41:59;9.50;99.90
59301;DHT22;45073;52.740;6.784;2024-02-21T01:44:25;9.50;99.90
59301;DHT22;45073;52.740;6.784;2024-02-21T01:46:52;9.50;99.90
59301;DHT22;45073;52.740;6.784;2024-02-21T01:49:18;9.40;99.90
59301;DHT22;45073;52.740;6.784;2024-02-21T01:51:44;9.50;99.90
59301;DHT22;45073;52.740;6.784;2024-02-21T01:54:12;9.40;99.90
59301;DHT22;45073;52.740;6.784;2024-02-21T01:56:38;9.50;99.90
59301;DHT22;45073;52.740;6.784;2024-02-21T01:59:04;9.50;99.90
59301;DHT22;45073;52.740;6.784;2024-02-21T02:01:30;9.50;99.90
59301;DHT22;45073;52.740;6.784;2024-02-21T02:03:56;9.40;99.90
59301;DHT22;45073;52.740;6.784;2024-02-21T02:06:22;9.50;99.90
59301;DHT22;45073;52.740;6.784;2024-02-21T02:08:48;9.50;99.90
59301;DHT22;45073;52.740;6.784;2024-02-21T02:11:14;9.50;99.90
59301;DHT22;45073;52.740;6.784;2024-02-21T02:13:40;9.50;99.90
59301;DHT22;45073;52.740;6.784;2024-02-21T02:16:06;9.50;99.90
59301;DHT22;45073;52.740;6.784;2024-02-21T02:18:31;9.50;99.90
59301;DHT22;45073;52.740;6.784;2024-02-21T02:20:57;9.50;99.90
59301;DHT22;45073;52.740;6.784;2024-02-21T02:25:52;9.50;99.90
59301;DHT22;45073;52.740;6.784;2024-02-21T02:28:18;9.50;99.90
59301;DHT22;45073;52.740;6.784;2024-02-21T02:30:44;9.50;99.90
59301;DHT22;45073;52.740;6.784;2024-02-21T02:33:10;9.50;99.90
59301;DHT22;45073;52.740;6.784;2024-02-21T02:35:36;9.50;99.90
59301;DHT22;45073;52.740;6.784;2024-02-21T02:38:02;9.40;99.90
59301;DHT22;45073;52.740;6.784;2024-02-21T02:40:28;9.40;99.90
59301;DHT22;45073;52.740;6.784;2024-02-21T02:42:54;9.40;99.90
59301;DHT22;45073;52.740;6.784;2024-02-21T02:45:23;9.30;99.90
59301;DHT22;45073;52.740;6.784;2024-02-21T02:47:52;9.30;99.90
59301;DHT22;45073;52.740;6.784;2024-02-21T02:50:19;9.30;99.90
59301;DHT22;45073;52.740;6.784;2024-02-21T02:52:45;9.30;99.90
59301;DHT22;45073;52.740;6.784;2024-02-21T02:55:11;9.30;99.90
59301;DHT22;45073;52.740;6.784;2024-02-21T02:57:37;9.30;99.90
59301;DHT22;45073;52.740;6.784;2024-02-21T03:00:03;9.20;99.90
59301;DHT22;45073;52.740;6.784;2024-02-21T03:02:29;9.20;99.90
59301;DHT22;45073;52.740;6.784;2024-02-21T03:04:56;9.20;99.90
59301;DHT22;45073;52.740;6.784;2024-02-21T03:07:23;9.20;99.90
59301;DHT22;45073;52.740;6.784;2024-02-21T03:09:50;9.20;99.90
59301;DHT22;45073;52.740;6.784;2024-02-21T03:12:15;9.20;99.90
59301;DHT22;45073;52.740;6.784;2024-02-21T03:14:52;9.10;99.90
59301;DHT22;45073;52.740;6.784;2024-02-21T03:17:17;9.10;99.90
59301;DHT22;45073;52.740;6.784;2024-02-21T03:19:43;9.10;99.90
59301;DHT22;45073;52.740;6.784;2024-02-21T03:22:09;9.10;99.90
59301;DHT22;45073;52.740;6.784;2024-02-21T03:24:34;9.10;99.90
59301;DHT22;45073;52.740;6.784;2024-02-21T03:27:00;9.10;99.90
59301;DHT22;45073;52.740;6.784;2024-02-21T03:29:25;9.10;99.90
59301;DHT22;45073;52.740;6.784;2024-02-21T03:31:51;9.10;99.90
59301;DHT22;45073;52.740;6.784;2024-02-21T03:34:17;9.10;99.90
59301;DHT22;45073;52.740;6.784;2024-02-21T03:36:42;9.10;99.90
59301;DHT22;45073;52.740;6.784;2024-02-21T03:39:08;9.10;99.90
59301;DHT22;45073;52.740;6.784;2024-02-21T03:41:35;9.10;99.90
59301;DHT22;45073;52.740;6.784;2024-02-21T03:44:01;9.10;99.90
59301;DHT22;45073;52.740;6.784;2024-02-21T03:46:27;9.10;99.90
59301;DHT22;45073;52.740;6.784;2024-02-21T03:48:53;9.10;99.90
59301;DHT22;45073;52.740;6.784;2024-02-21T03:51:19;9.10;99.90
59301;DHT22;45073;52.740;6.784;2024-02-21T03:53:44;9.10;99.90
59301;DHT22;45073;52.740;6.784;2024-02-21T03:56:10;9.00;99.90
59301;DHT22;45073;52.740;6.784;2024-02-21T03:58:35;9.10;99.90
59301;DHT22;45073;52.740;6.784;2024-02-21T04:01:02;9.10;99.90
59301;DHT22;45073;52.740;6.784;2024-02-21T04:03:28;9.10;99.90
59301;DHT22;45073;52.740;6.784;2024-02-21T04:05:54;9.10;99.90
59301;DHT22;45073;52.740;6.784;2024-02-21T04:08:20;9.10;99.90
59301;DHT22;45073;52.740;6.784;2024-02-21T04:10:46;9.10;99.90
59301;DHT22;45073;52.740;6.784;2024-02-21T04:13:12;9.10;99.90
59301;DHT22;45073;52.740;6.784;2024-02-21T04:15:38;9.10;99.90
59301;DHT22;45073;52.740;6.784;2024-02-21T04:18:03;9.10;99.90
59301;DHT22;45073;52.740;6.784;2024-02-21T04:20:29;9.10;99.90
59301;DHT22;45073;52.740;6.784;2024-02-21T04:22:55;9.10;99.90
59301;DHT22;45073;52.740;6.784;2024-02-21T04:25:21;9.10;99.90
59301;DHT22;45073;52.740;6.784;2024-02-21T04:27:46;9.10;99.90
59301;DHT22;45073;52.740;6.784;2024-02-21T04:30:12;9.20;99.90
59301;DHT22;45073;52.740;6.784;2024-02-21T04:32:39;9.10;99.90
59301;DHT22;45073;52.740;6.784;2024-02-21T04:35:05;9.10;99.90
59301;DHT22;45073;52.740;6.784;2024-02-21T04:37:30;9.20;99.90
59301;DHT22;45073;52.740;6.784;2024-02-21T04:39:56;9.20;99.90
59301;DHT22;45073;52.740;6.784;2024-02-21T04:42:22;9.20;99.90
59301;DHT22;45073;52.740;6.784;2024-02-21T04:44:48;9.20;99.90
59301;DHT22;45073;52.740;6.784;2024-02-21T04:47:13;9.20;99.90
59301;DHT22;45073;52.740;6.784;2024-02-21T04:49:39;9.20;99.90
59301;DHT22;45073;52.740;6.784;2024-02-21T04:52:05;9.20;99.90
59301;DHT22;45073;52.740;6.784;2024-02-21T04:54:31;9.20;99.90
59301;DHT22;45073;52.740;6.784;2024-02-21T04:56:56;9.20;99.90
59301;DHT22;45073;52.740;6.784;2024-02-21T04:59:22;9.20;99.90
59301;DHT22;45073;52.740;6.784;2024-02-21T05:01:47;9.20;99.90
59301;DHT22;45073;52.740;6.784;2024-02-21T05:04:13;9.20;99.90
59301;DHT22;45073;52.740;6.784;2024-02-21T05:06:42;9.20;99.90
59301;DHT22;45073;52.740;6.784;2024-02-21T05:09:09;9.20;99.90
59301;DHT22;45073;52.740;6.784;2024-02-21T05:11:35;9.20;99.90
59301;DHT22;45073;52.740;6.784;2024-02-21T05:14:01;9.20;99.90
59301;DHT22;45073;52.740;6.784;2024-02-21T05:16:27;9.30;99.90
59301;DHT22;45073;52.740;6.784;2024-02-21T05:18:52;9.20;99.90
59301;DHT22;45073;52.740;6.784;2024-02-21T05:21:18;9.30;99.90
59301;DHT22;45073;52.740;6.784;2024-02-21T05:23:44;9.20;99.90
59301;DHT22;45073;52.740;6.784;2024-02-21T05:26:10;9.30;99.90
59301;DHT22;45073;52.740;6.784;2024-02-21T05:28:35;9.30;99.90
59301;DHT22;45073;52.740;6.784;2024-02-21T05:31:01;9.30;99.90
59301;DHT22;45073;52.740;6.784;2024-02-21T05:33:27;9.20;99.90
59301;DHT22;45073;52.740;6.784;2024-02-21T05:35:52;9.30;99.90
59301;DHT22;45073;52.740;6.784;2024-02-21T05:38:18;9.30;99.90
59301;DHT22;45073;52.740;6.784;2024-02-21T05:40:46;9.20;99.90
59301;DHT22;45073;52.740;6.784;2024-02-21T05:43:13;9.30;99.90
59301;DHT22;45073;52.740;6.784;2024-02-21T05:45:38;9.30;99.90
59301;DHT22;45073;52.740;6.784;2024-02-21T05:48:04;9.30;99.90
59301;DHT22;45073;52.740;6.784;2024-02-21T05:50:30;9.30;99.90
59301;DHT22;45073;52.740;6.784;2024-02-21T05:52:56;9.30;99.90
59301;DHT22;45073;52.740;6.784;2024-02-21T05:55:22;9.30;99.90
59301;DHT22;45073;52.740;6.784;2024-02-21T05:57:47;9.30;99.90
59301;DHT22;45073;52.740;6.784;2024-02-21T06:00:13;9.20;99.90
59301;DHT22;45073;52.740;6.784;2024-02-21T06:02:39;9.20;99.90
59301;DHT22;45073;52.740;6.784;2024-02-21T06:05:06;9.30;99.90
59301;DHT22;45073;52.740;6.784;2024-02-21T06:07:35;9.20;99.90
59301;DHT22;45073;52.740;6.784;2024-02-21T06:10:04;9.30;99.90
59301;DHT22;45073;52.740;6.784;2024-02-21T06:12:30;9.20;99.90
59301;DHT22;45073;52.740;6.784;2024-02-21T06:14:56;9.30;99.90
59301;DHT22;45073;52.740;6.784;2024-02-21T06:17:21;9.20;99.90
59301;DHT22;45073;52.740;6.784;2024-02-21T06:19:47;9.30;99.90
59301;DHT22;45073;52.740;6.784;2024-02-21T06:22:12;9.20;99.90
59301;DHT22;45073;52.740;6.784;2024-02-21T06:24:38;9.30;99.90
59301;DHT22;45073;52.740;6.784;2024-02-21T06:27:04;9.30;99.90
59301;DHT22;45073;52.740;6.784;2024-02-21T06:29:33;9.20;99.90
59301;DHT22;45073;52.740;6.784;2024-02-21T06:31:59;9.20;99.90
59301;DHT22;45073;52.740;6.784;2024-02-21T06:34:25;9.30;99.90
59301;DHT22;45073;52.740;6.784;2024-02-21T06:36:51;9.20;99.90
59301;DHT22;45073;52.740;6.784;2024-02-21T06:39:17;9.30;99.90
59301;DHT22;45073;52.740;6.784;2024-02-21T06:41:42;9.20;99.90
59301;DHT22;45073;52.740;6.784;2024-02-21T06:44:08;9.30;99.90
59301;DHT22;45073;52.740;6.784;2024-02-21T06:46:34;9.30;99.90
59301;DHT22;45073;52.740;6.784;2024-02-21T06:49:00;9.30;99.90
59301;DHT22;45073;52.740;6.784;2024-02-21T06:51:27;9.30;99.90
59301;DHT22;45073;52.740;6.784;2024-02-21T06:53:53;9.30;99.90
59301;DHT22;45073;52.740;6.784;2024-02-21T06:56:19;9.30;99.90
59301;DHT22;45073;52.740;6.784;2024-02-21T06:58:45;9.30;99.90
59301;DHT22;45073;52.740;6.784;2024-02-21T07:01:11;9.30;99.90
59301;DHT22;45073;52.740;6.784;2024-02-21T07:03:37;9.30;99.90
59301;DHT22;45073;52.740;6.784;2024-02-21T07:06:03;9.20;99.90
59301;DHT22;45073;52.740;6.784;2024-02-21T07:08:28;9.30;99.90
59301;DHT22;45073;52.740;6.784;2024-02-21T07:10:54;9.30;99.90
59301;DHT22;45073;52.740;6.784;2024-02-21T07:13:19;9.30;99.90
59301;DHT22;45073;52.740;6.784;2024-02-21T07:15:47;9.30;99.90
59301;DHT22;45073;52.740;6.784;2024-02-21T07:18:13;9.20;99.90
59301;DHT22;45073;52.740;6.784;2024-02-21T07:20:38;9.30;99.90
59301;DHT22;45073;52.740;6.784;2024-02-21T07:23:07;9.20;99.90
59301;DHT22;45073;52.740;6.784;2024-02-21T07:25:32;9.20;99.90
59301;DHT22;45073;52.740;6.784;2024-02-21T07:27:58;9.20;99.90
59301;DHT22;45073;52.740;6.784;2024-02-21T07:30:24;9.20;99.90
59301;DHT22;45073;52.740;6.784;2024-02-21T07:32:50;9.20;99.90
59301;DHT22;45073;52.740;6.784;2024-02-21T07:35:17;9.10;99.90
59301;DHT22;45073;52.740;6.784;2024-02-21T07:37:42;9.20;99.90
59301;DHT22;45073;52.740;6.784;2024-02-21T07:40:17;9.10;99.90
59301;DHT22;45073;52.740;6.784;2024-02-21T07:42:44;9.10;99.90
59301;DHT22;45073;52.740;6.784;2024-02-21T07:45:09;9.10;99.90
59301;DHT22;45073;52.740;6.784;2024-02-21T07:47:36;9.10;99.90
59301;DHT22;45073;52.740;6.784;2024-02-21T07:50:03;9.10;99.90
59301;DHT22;45073;52.740;6.784;2024-02-21T07:52:28;9.10;99.90
59301;DHT22;45073;52.740;6.784;2024-02-21T07:54:54;9.10;99.90
59301;DHT22;45073;52.740;6.784;2024-02-21T07:57:20;9.10;99.90
59301;DHT22;45073;52.740;6.784;2024-02-21T07:59:45;9.20;99.90
59301;DHT22;45073;52.740;6.784;2024-02-21T08:02:16;9.10;99.90
59301;DHT22;45073;52.740;6.784;2024-02-21T08:04:42;9.10;99.90
59301;DHT22;45073;52.740;6.784;2024-02-21T08:07:08;9.20;99.90
59301;DHT22;45073;52.740;6.784;2024-02-21T08:09:34;9.10;99.90
59301;DHT22;45073;52.740;6.784;2024-02-21T08:12:00;9.10;99.90
59301;DHT22;45073;52.740;6.784;2024-02-21T08:14:26;9.10;99.90
59301;DHT22;45073;52.740;6.784;2024-02-21T08:16:52;9.10;99.90
59301;DHT22;45073;52.740;6.784;2024-02-21T08:19:21;9.10;99.90
59301;DHT22;45073;52.740;6.784;2024-02-21T08:21:48;9.10;99.90
59301;DHT22;45073;52.740;6.784;2024-02-21T08:24:16;9.10;99.90
59301;DHT22;45073;52.740;6.784;2024-02-21T08:26:42;9.10;99.90
59301;DHT22;45073;52.740;6.784;2024-02-21T08:29:10;9.10;99.90
59301;DHT22;45073;52.740;6.784;2024-02-21T08:31:35;9.10;99.90
59301;DHT22;45073;52.740;6.784;2024-02-21T08:34:01;9.10;99.90
59301;DHT22;45073;52.740;6.784;2024-02-21T08:36:30;9.10;99.90
59301;DHT22;45073;52.740;6.784;2024-02-21T08:38:56;9.10;99.90
59301;DHT22;45073;52.740;6.784;2024-02-21T08:41:24;9.10;99.90
59301;DHT22;45073;52.740;6.784;2024-02-21T08:43:54;9.20;99.90
59301;DHT22;45073;52.740;6.784;2024-02-21T08:46:20;9.20;99.90
59301;DHT22;45073;52.740;6.784;2024-02-21T08:48:46;9.20;99.90
59301;DHT22;45073;52.740;6.784;2024-02-21T08:51:13;9.20;99.90
59301;DHT22;45073;52.740;6.784;2024-02-21T08:53:39;9.20;99.90
59301;DHT22;45073;52.740;6.784;2024-02-21T08:56:05;9.20;99.90
59301;DHT22;45073;52.740;6.784;2024-02-21T08:58:31;9.30;99.90
59301;DHT22;45073;52.740;6.784;2024-02-21T09:00:56;9.30;99.90
59301;DHT22;45073;52.740;6.784;2024-02-21T09:03:22;9.30;99.90
59301;DHT22;45073;52.740;6.784;2024-02-21T09:05:48;9.30;99.90
59301;DHT22;45073;52.740;6.784;2024-02-21T09:08:14;9.30;99.90
59301;DHT22;45073;52.740;6.784;2024-02-21T09:10:40;9.30;99.90
59301;DHT22;45073;52.740;6.784;2024-02-21T09:13:06;9.40;99.90
59301;DHT22;45073;52.740;6.784;2024-02-21T09:15:33;9.40;99.90
59301;DHT22;45073;52.740;6.784;2024-02-21T09:17:59;9.40;99.90
59301;DHT22;45073;52.740;6.784;2024-02-21T09:20:24;9.40;99.90
59301;DHT22;45073;52.740;6.784;2024-02-21T09:22:50;9.50;99.90
59301;DHT22;45073;52.740;6.784;2024-02-21T09:25:16;9.40;99.90
59301;DHT22;45073;52.740;6.784;2024-02-21T09:27:44;9.40;99.90
59301;DHT22;45073;52.740;6.784;2024-02-21T09:30:10;9.50;99.90
59301;DHT22;45073;52.740;6.784;2024-02-21T09:32:36;9.50;99.90
59301;DHT22;45073;52.740;6.784;2024-02-21T09:35:02;9.50;99.90
59301;DHT22;45073;52.740;6.784;2024-02-21T09:37:28;9.50;99.90
59301;DHT22;45073;52.740;6.784;2024-02-21T09:39:54;9.50;99.90
59301;DHT22;45073;52.740;6.784;2024-02-21T09:42:21;9.50;99.90
59301;DHT22;45073;52.740;6.784;2024-02-21T09:44:50;9.50;99.90
59301;DHT22;45073;52.740;6.784;2024-02-21T09:47:22;9.60;99.90
59301;DHT22;45073;52.740;6.784;2024-02-21T09:49:48;9.60;99.90
59301;DHT22;45073;52.740;6.784;2024-02-21T09:52:15;9.60;99.90
59301;DHT22;45073;52.740;6.784;2024-02-21T09:54:41;9.60;99.90
59301;DHT22;45073;52.740;6.784;2024-02-21T09:57:10;9.60;99.90
59301;DHT22;45073;52.740;6.784;2024-02-21T09:59:35;9.60;99.90
59301;DHT22;45073;52.740;6.784;2024-02-21T10:02:01;9.60;99.90
59301;DHT22;45073;52.740;6.784;2024-02-21T10:04:27;9.60;99.90
59301;DHT22;45073;52.740;6.784;2024-02-21T10:06:54;9.60;99.90
59301;DHT22;45073;52.740;6.784;2024-02-21T10:09:29;9.60;99.90
59301;DHT22;45073;52.740;6.784;2024-02-21T10:11:55;9.60;99.90
59301;DHT22;45073;52.740;6.784;2024-02-21T10:14:21;9.60;99.90
59301;DHT22;45073;52.740;6.784;2024-02-21T10:16:48;9.60;99.90
59301;DHT22;45073;52.740;6.784;2024-02-21T10:19:20;9.60;99.90
59301;DHT22;45073;52.740;6.784;2024-02-21T10:22:02;9.60;99.90
59301;DHT22;45073;52.740;6.784;2024-02-21T10:24:36;9.60;99.90
59301;DHT22;45073;52.740;6.784;2024-02-21T10:27:04;9.60;99.90
59301;DHT22;45073;52.740;6.784;2024-02-21T10:29:37;9.60;99.90
59301;DHT22;45073;52.740;6.784;2024-02-21T10:32:07;9.60;99.90
59301;DHT22;45073;52.740;6.784;2024-02-21T10:34:33;9.60;99.90
59301;DHT22;45073;52.740;6.784;2024-02-21T10:37:03;9.70;99.90
59301;DHT22;45073;52.740;6.784;2024-02-21T10:39:33;9.70;99.90
59301;DHT22;45073;52.740;6.784;2024-02-21T10:42:01;9.70;99.90
59301;DHT22;45073;52.740;6.784;2024-02-21T10:44:36;9.70;99.90
59301;DHT22;45073;52.740;6.784;2024-02-21T10:47:09;9.70;99.90
59301;DHT22;45073;52.740;6.784;2024-02-21T10:49:37;9.80;99.90
59301;DHT22;45073;52.740;6.784;2024-02-21T10:52:29;9.90;99.90
59301;DHT22;45073;52.740;6.784;2024-02-21T10:55:05;9.90;99.90
59301;DHT22;45073;52.740;6.784;2024-02-21T10:57:37;9.90;99.90
59301;DHT22;45073;52.740;6.784;2024-02-21T11:00:04;10.00;99.90
59301;DHT22;45073;52.740;6.784;2024-02-21T11:02:34;10.00;99.90
59301;DHT22;45073;52.740;6.784;2024-02-21T11:05:01;10.00;99.90
59301;DHT22;45073;52.740;6.784;2024-02-21T11:07:29;9.90;99.90
59301;DHT22;45073;52.740;6.784;2024-02-21T11:09:55;10.00;99.90
59301;DHT22;45073;52.740;6.784;2024-02-21T11:12:21;9.90;99.90
59301;DHT22;45073;52.740;6.784;2024-02-21T11:14:47;9.90;99.90
59301;DHT22;45073;52.740;6.784;2024-02-21T11:17:17;9.90;99.90
59301;DHT22;45073;52.740;6.784;2024-02-21T11:19:43;9.90;99.90
59301;DHT22;45073;52.740;6.784;2024-02-21T11:22:19;9.90;99.90
59301;DHT22;45073;52.740;6.784;2024-02-21T11:24:50;9.90;99.90
59301;DHT22;45073;52.740;6.784;2024-02-21T11:27:16;9.90;99.90
59301;DHT22;45073;52.740;6.784;2024-02-21T11:29:53;10.00;99.90
59301;DHT22;45073;52.740;6.784;2024-02-21T11:32:20;10.00;99.90
59301;DHT22;45073;52.740;6.784;2024-02-21T11:34:59;10.10;99.90
59301;DHT22;45073;52.740;6.784;2024-02-21T11:37:30;10.10;99.90
59301;DHT22;45073;52.740;6.784;2024-02-21T11:39:59;10.20;99.90
59301;DHT22;45073;52.740;6.784;2024-02-21T11:42:25;10.20;99.90
59301;DHT22;45073;52.740;6.784;2024-02-21T11:44:51;10.20;99.90
59301;DHT22;45073;52.740;6.784;2024-02-21T11:47:18;10.20;99.90
59301;DHT22;45073;52.740;6.784;2024-02-21T11:49:48;10.20;99.90
59301;DHT22;45073;52.740;6.784;2024-02-21T11:52:21;10.20;99.90
59301;DHT22;45073;52.740;6.784;2024-02-21T11:54:48;10.20;99.90
59301;DHT22;45073;52.740;6.784;2024-02-21T11:57:14;10.20;99.90
59301;DHT22;45073;52.740;6.784;2024-02-21T11:59:40;10.20;99.90
59301;DHT22;45073;52.740;6.784;2024-02-21T12:02:06;10.20;99.90
59301;DHT22;45073;52.740;6.784;2024-02-21T12:04:33;10.20;99.90
59301;DHT22;45073;52.740;6.784;2024-02-21T12:06:59;10.20;99.90
59301;DHT22;45073;52.740;6.784;2024-02-21T12:09:25;10.30;99.90
59301;DHT22;45073;52.740;6.784;2024-02-21T12:12:04;10.30;99.90
59301;DHT22;45073;52.740;6.784;2024-02-21T12:14:31;10.30;99.90
59301;DHT22;45073;52.740;6.784;2024-02-21T12:16:58;10.30;99.90
59301;DHT22;45073;52.740;6.784;2024-02-21T12:19:24;10.30;99.90
59301;DHT22;45073;52.740;6.784;2024-02-21T12:21:50;10.30;99.90
59301;DHT22;45073;52.740;6.784;2024-02-21T12:24:28;10.30;99.90
59301;DHT22;45073;52.740;6.784;2024-02-21T12:26:55;10.30;99.90
59301;DHT22;45073;52.740;6.784;2024-02-21T12:29:22;10.30;99.90
59301;DHT22;45073;52.740;6.784;2024-02-21T12:31:51;10.30;99.90
59301;DHT22;45073;52.740;6.784;2024-02-21T12:34:17;10.30;99.90
59301;DHT22;45073;52.740;6.784;2024-02-21T12:36:44;10.30;99.90
59301;DHT22;45073;52.740;6.784;2024-02-21T12:39:12;10.30;99.90
59301;DHT22;45073;52.740;6.784;2024-02-21T12:41:38;10.30;99.90
59301;DHT22;45073;52.740;6.784;2024-02-21T12:44:07;10.30;99.90
59301;DHT22;45073;52.740;6.784;2024-02-21T12:46:34;10.30;99.90
59301;DHT22;45073;52.740;6.784;2024-02-21T12:49:00;10.20;99.90
59301;DHT22;45073;52.740;6.784;2024-02-21T12:51:26;10.20;99.90
59301;DHT22;45073;52.740;6.784;2024-02-21T12:53:51;10.10;99.90
59301;DHT22;45073;52.740;6.784;2024-02-21T12:56:17;10.10;99.90
59301;DHT22;45073;52.740;6.784;2024-02-21T12:58:43;10.10;99.90
59301;DHT22;45073;52.740;6.784;2024-02-21T13:01:09;10.10;99.90
59301;DHT22;45073;52.740;6.784;2024-02-21T13:03:34;10.00;99.90
59301;DHT22;45073;52.740;6.784;2024-02-21T13:06:00;10.00;99.90
59301;DHT22;45073;52.740;6.784;2024-02-21T13:08:26;10.00;99.90
59301;DHT22;45073;52.740;6.784;2024-02-21T13:10:51;10.00;99.90
59301;DHT22;45073;52.740;6.784;2024-02-21T13:13:17;10.00;99.90
59301;DHT22;45073;52.740;6.784;2024-02-21T13:15:42;10.00;99.90
59301;DHT22;45073;52.740;6.784;2024-02-21T13:18:09;10.00;99.90
59301;DHT22;45073;52.740;6.784;2024-02-21T13:20:36;10.00;99.90
59301;DHT22;45073;52.740;6.784;2024-02-21T13:23:01;10.00;99.90
59301;DHT22;45073;52.740;6.784;2024-02-21T13:25:27;10.00;99.90
59301;DHT22;45073;52.740;6.784;2024-02-21T13:27:53;10.00;99.90
59301;DHT22;45073;52.740;6.784;2024-02-21T13:30:19;10.10;99.90
59301;DHT22;45073;52.740;6.784;2024-02-21T13:32:45;10.10;99.90
59301;DHT22;45073;52.740;6.784;2024-02-21T13:35:14;10.20;99.90
59301;DHT22;45073;52.740;6.784;2024-02-21T13:37:40;10.30;99.90
59301;DHT22;45073;52.740;6.784;2024-02-21T13:40:07;10.40;99.90
59301;DHT22;45073;52.740;6.784;2024-02-21T13:42:37;10.50;99.90
59301;DHT22;45073;52.740;6.784;2024-02-21T13:45:04;10.60;99.90
59301;DHT22;45073;52.740;6.784;2024-02-21T13:47:31;10.70;99.90
59301;DHT22;45073;52.740;6.784;2024-02-21T13:49:56;10.70;99.90
59301;DHT22;45073;52.740;6.784;2024-02-21T13:52:22;10.70;99.90
59301;DHT22;45073;52.740;6.784;2024-02-21T13:54:48;10.60;99.90
59301;DHT22;45073;52.740;6.784;2024-02-21T13:57:14;10.60;99.90
59301;DHT22;45073;52.740;6.784;2024-02-21T13:59:42;10.60;99.90
59301;DHT22;45073;52.740;6.784;2024-02-21T14:02:08;10.60;99.90
59301;DHT22;45073;52.740;6.784;2024-02-21T14:04:34;10.50;99.90
59301;DHT22;45073;52.740;6.784;2024-02-21T14:07:00;10.50;99.90
59301;DHT22;45073;52.740;6.784;2024-02-21T14:09:26;10.40;99.90
59301;DHT22;45073;52.740;6.784;2024-02-21T14:11:52;10.40;99.90
59301;DHT22;45073;52.740;6.784;2024-02-21T14:14:17;10.30;99.90
59301;DHT22;45073;52.740;6.784;2024-02-21T14:16:43;10.30;99.90
59301;DHT22;45073;52.740;6.784;2024-02-21T14:19:09;10.30;99.90
59301;DHT22;45073;52.740;6.784;2024-02-21T14:21:35;10.20;99.90
59301;DHT22;45073;52.740;6.784;2024-02-21T14:24:04;10.20;99.90
59301;DHT22;45073;52.740;6.784;2024-02-21T14:26:29;10.20;99.90
59301;DHT22;45073;52.740;6.784;2024-02-21T14:28:59;10.20;99.90
59301;DHT22;45073;52.740;6.784;2024-02-21T14:31:25;10.20;99.90
59301;DHT22;45073;52.740;6.784;2024-02-21T14:33:51;10.20;99.90
59301;DHT22;45073;52.740;6.784;2024-02-21T14:36:17;10.20;99.90
59301;DHT22;45073;52.740;6.784;2024-02-21T14:38:43;10.20;99.90
59301;DHT22;45073;52.740;6.784;2024-02-21T14:41:10;10.20;99.90
59301;DHT22;45073;52.740;6.784;2024-02-21T14:43:38;10.20;99.90
59301;DHT22;45073;52.740;6.784;2024-02-21T14:46:04;10.20;99.90
59301;DHT22;45073;52.740;6.784;2024-02-21T14:48:31;10.20;99.90
59301;DHT22;45073;52.740;6.784;2024-02-21T14:50:57;10.20;99.90
59301;DHT22;45073;52.740;6.784;2024-02-21T14:53:23;10.20;99.90
59301;DHT22;45073;52.740;6.784;2024-02-21T14:55:49;10.20;99.90
59301;DHT22;45073;52.740;6.784;2024-02-21T14:58:18;10.20;99.90
59301;DHT22;45073;52.740;6.784;2024-02-21T15:00:45;10.20;99.90
59301;DHT22;45073;52.740;6.784;2024-02-21T15:03:12;10.20;99.90
59301;DHT22;45073;52.740;6.784;2024-02-21T15:05:41;10.20;99.90
59301;DHT22;45073;52.740;6.784;2024-02-21T15:08:07;10.20;99.90
59301;DHT22;45073;52.740;6.784;2024-02-21T15:10:35;10.20;99.90
59301;DHT22;45073;52.740;6.784;2024-02-21T15:13:01;10.20;99.90
59301;DHT22;45073;52.740;6.784;2024-02-21T15:15:26;10.20;99.90
59301;DHT22;45073;52.740;6.784;2024-02-21T15:17:52;10.20;99.90
59301;DHT22;45073;52.740;6.784;2024-02-21T15:20:18;10.20;99.90
59301;DHT22;45073;52.740;6.784;2024-02-21T15:22:43;10.30;99.90
59301;DHT22;45073;52.740;6.784;2024-02-21T15:25:09;10.30;99.90
59301;DHT22;45073;52.740;6.784;2024-02-21T15:27:43;10.30;99.90
59301;DHT22;45073;52.740;6.784;2024-02-21T15:30:15;10.30;99.90
59301;DHT22;45073;52.740;6.784;2024-02-21T15:32:41;10.20;99.90
59301;DHT22;45073;52.740;6.784;2024-02-21T15:35:10;10.20;99.90
59301;DHT22;45073;52.740;6.784;2024-02-21T15:37:39;10.20;99.90
59301;DHT22;45073;52.740;6.784;2024-02-21T15:40:05;10.20;99.90
59301;DHT22;45073;52.740;6.784;2024-02-21T15:42:34;10.20;99.90